sensor_id;sensor_type;location;lat;lon;timestamp;pressure;altitude;pressure_sealevel;temperature
79148;BMP280;68562;51.600;6.524;2023-05-17T00:00:00;1022.8;;;12.4
79148;BMP280;68562;51.600;6.524;2023-05-17T00:05:00;1022.8;;;12.4
79148;BMP280;68562;51.600;6.524;2023-05-17T00:10:00;1022.8;;;12.3
79148;BMP280;68562;51.600;6.524;2023-05-17T00:15:00;1022.9;;;12.3
79148;BMP280;68562;51.600;6.524;2023-05-17T00:20:00;1022.9;;;12.3
79148;BMP280;68562;51.600;6.524;2023-05-17T00:25:00;1022.9;;;12.2
79148;BMP280;68562;51.600;6.524;2023-05-17T00:30:00;1022.9;;;12.2
79148;BMP280;68562;51.600;6.524;2023-05-17T00:35:00;1023.0;;;12.2
79148;BMP280;68562;51.600;6.524;2023-05-17T00:40:00;1023.0;;;12.2
79148;BMP280;68562;51.600;6.524;2023-05-17T00:45:00;1023.0;;;12.1
79148;BMP280;68562;51.600;6.524;2023-05-17T00:50:00;1022.9;;;12.0
79148;BMP280;68562;51.600;6.524;2023-05-17T00:55:00;1023.0;;;11.9
79148;BMP280;68562;51.600;6.524;2023-05-17T01:00:00;1022.9;;;12.0
79148;BMP280;68562;51.600;6.524;2023-05-17T01:05:00;1022.9;;;11.9
79148;BMP280;68562;51.600;6.524;2023-05-17T01:10:00;1022.8;;;11.9
79148;BMP280;68562;51.600;6.524;2023-05-17T01:15:06;1022.8;;;11.9
79148;BMP280;68562;51.600;6.524;2023-05-17T01:20:04;1022.9;;;11.8
79148;BMP280;68562;51.600;6.524;2023-05-17T01:25:06;1022.9;;;11.8
79148;BMP280;68562;51.600;6.524;2023-05-17T01:30:01;1022.9;;;11.7
79148;BMP280;68562;51.600;6.524;2023-05-17T01:35:03;1023.0;;;11.6
79148;BMP280;68562;51.600;6.524;2023-05-17T01:40:00;1022.9;;;11.5
79148;BMP280;68562;51.600;6.524;2023-05-17T01:45:05;1022.9;;;11.3
79148;BMP280;68562;51.600;6.524;2023-05-17T01:50:02;1022.9;;;11.3
79148;BMP280;68562;51.600;6.524;2023-05-17T01:55:05;1022.9;;;11.3
79148;BMP280;68562;51.600;6.524;2023-05-17T02:00:04;1023.0;;;11.4
79148;BMP280;68562;51.600;6.524;2023-05-17T02:05:00;1023.0;;;11.3
79148;BMP280;68562;51.600;6.524;2023-05-17T02:10:00;1023.0;;;11.3
79148;BMP280;68562;51.600;6.524;2023-05-17T02:15:00;1023.0;;;11.2
79148;BMP280;68562;51.600;6.524;2023-05-17T02:20:00;1022.9;;;11.2
79148;BMP280;68562;51.600;6.524;2023-05-17T02:25:00;1023.0;;;11.2
79148;BMP280;68562;51.600;6.524;2023-05-17T02:30:00;1023.1;;;11.2
79148;BMP280;68562;51.600;6.524;2023-05-17T02:35:00;1023.1;;;11.2
79148;BMP280;68562;51.600;6.524;2023-05-17T02:40:00;1023.1;;;11.2
79148;BMP280;68562;51.600;6.524;2023-05-17T02:45:00;1023.1;;;11.1
79148;BMP280;68562;51.600;6.524;2023-05-17T02:50:00;1023.1;;;11.1
79148;BMP280;68562;51.600;6.524;2023-05-17T02:55:00;1023.2;;;11.2
79148;BMP280;68562;51.600;6.524;2023-05-17T03:00:00;1023.3;;;11.3
79148;BMP280;68562;51.600;6.524;2023-05-17T03:05:00;1023.4;;;11.3
79148;BMP280;68562;51.600;6.524;2023-05-17T03:10:00;1023.4;;;11.3
79148;BMP280;68562;51.600;6.524;2023-05-17T03:15:00;1023.4;;;11.3
79148;BMP280;68562;51.600;6.524;2023-05-17T03:20:00;1023.5;;;11.5
79148;BMP280;68562;51.600;6.524;2023-05-17T03:25:00;1023.5;;;11.5
79148;BMP280;68562;51.600;6.524;2023-05-17T03:30:00;1023.5;;;11.6
79148;BMP280;68562;51.600;6.524;2023-05-17T03:35:00;1023.5;;;11.7
79148;BMP280;68562;51.600;6.524;2023-05-17T03:40:00;1023.6;;;11.8
79148;BMP280;68562;51.600;6.524;2023-05-17T03:45:00;1023.6;;;11.9
79148;BMP280;68562;51.600;6.524;2023-05-17T03:50:00;1023.7;;;12.1
79148;BMP280;68562;51.600;6.524;2023-05-17T03:55:00;1023.6;;;12.3
79148;BMP280;68562;51.600;6.524;2023-05-17T04:00:00;1023.7;;;12.5
79148;BMP280;68562;51.600;6.524;2023-05-17T04:05:00;1023.8;;;12.6
79148;BMP280;68562;51.600;6.524;2023-05-17T04:10:00;1023.8;;;12.7
79148;BMP280;68562;51.600;6.524;2023-05-17T04:15:00;1023.9;;;12.7
79148;BMP280;68562;51.600;6.524;2023-05-17T04:20:00;1024.0;;;12.8
79148;BMP280;68562;51.600;6.524;2023-05-17T04:25:00;1024.0;;;12.9
79148;BMP280;68562;51.600;6.524;2023-05-17T04:30:00;1024.0;;;12.8
79148;BMP280;68562;51.600;6.524;2023-05-17T04:35:00;1024.1;;;12.9
79148;BMP280;68562;51.600;6.524;2023-05-17T04:40:00;1024.2;;;12.8
79148;BMP280;68562;51.600;6.524;2023-05-17T04:45:00;1024.2;;;12.8
79148;BMP280;68562;51.600;6.524;2023-05-17T04:50:00;1024.2;;;12.7
79148;BMP280;68562;51.600;6.524;2023-05-17T04:55:00;1024.3;;;12.7
79148;BMP280;68562;51.600;6.524;2023-05-17T05:00:01;1024.3;;;12.7
79148;BMP280;68562;51.600;6.524;2023-05-17T05:05:00;1024.5;;;12.8
79148;BMP280;68562;51.600;6.524;2023-05-17T05:10:00;1024.5;;;12.9
79148;BMP280;68562;51.600;6.524;2023-05-17T05:15:00;1024.6;;;13.1
79148;BMP280;68562;51.600;6.524;2023-05-17T05:20:00;1024.7;;;13.2
79148;BMP280;68562;51.600;6.524;2023-05-17T05:25:00;1024.7;;;13.3
79148;BMP280;68562;51.600;6.524;2023-05-17T05:30:01;1024.7;;;13.4
79148;BMP280;68562;51.600;6.524;2023-05-17T05:35:00;1024.8;;;13.5
79148;BMP280;68562;51.600;6.524;2023-05-17T05:40:00;1024.8;;;13.6
79148;BMP280;68562;51.600;6.524;2023-05-17T05:45:00;1024.8;;;13.8
79148;BMP280;68562;51.600;6.524;2023-05-17T05:50:00;1024.9;;;13.9
79148;BMP280;68562;51.600;6.524;2023-05-17T05:55:00;1024.9;;;14.0
79148;BMP280;68562;51.600;6.524;2023-05-17T06:00:00;1025.0;;;14.1
79148;BMP280;68562;51.600;6.524;2023-05-17T06:05:00;1025.0;;;14.2
79148;BMP280;68562;51.600;6.524;2023-05-17T06:10:00;1025.1;;;14.3
79148;BMP280;68562;51.600;6.524;2023-05-17T06:15:00;1025.1;;;14.6
79148;BMP280;68562;51.600;6.524;2023-05-17T06:20:00;1025.1;;;14.8
79148;BMP280;68562;51.600;6.524;2023-05-17T06:25:00;1025.2;;;15.1
79148;BMP280;68562;51.600;6.524;2023-05-17T06:30:00;1025.2;;;15.4
79148;BMP280;68562;51.600;6.524;2023-05-17T06:35:00;0;;;0
79148;BMP280;68562;51.600;6.524;2023-05-17T06:40:01;1025.3;;;15.8
79148;BMP280;68562;51.600;6.524;2023-05-17T06:45:00;1025.3;;;16.1
79148;BMP280;68562;51.600;6.524;2023-05-17T06:50:00;1025.3;;;16.3
79148;BMP280;68562;51.600;6.524;2023-05-17T06:55:00;1025.4;;;16.6
79148;BMP280;68562;51.600;6.524;2023-05-17T07:00:00;1025.4;;;16.9
79148;BMP280;68562;51.600;6.524;2023-05-17T07:05:00;1025.5;;;17.2
79148;BMP280;68562;51.600;6.524;2023-05-17T07:10:00;1025.5;;;17.4
79148;BMP280;68562;51.600;6.524;2023-05-17T07:15:00;1025.5;;;17.6
79148;BMP280;68562;51.600;6.524;2023-05-17T07:20:00;1025.6;;;17.7
79148;BMP280;68562;51.600;6.524;2023-05-17T07:25:00;1025.6;;;17.8
79148;BMP280;68562;51.600;6.524;2023-05-17T07:30:00;1025.6;;;18.1
79148;BMP280;68562;51.600;6.524;2023-05-17T07:35:00;1025.7;;;18.4
79148;BMP280;68562;51.600;6.524;2023-05-17T07:40:00;1025.7;;;18.7
79148;BMP280;68562;51.600;6.524;2023-05-17T07:45:00;1025.8;;;19.0
79148;BMP280;68562;51.600;6.524;2023-05-17T07:50:00;1025.8;;;19.2
79148;BMP280;68562;51.600;6.524;2023-05-17T07:55:00;1025.9;;;19.4
79148;BMP280;68562;51.600;6.524;2023-05-17T08:00:00;1025.9;;;19.7
79148;BMP280;68562;51.600;6.524;2023-05-17T08:05:00;1025.9;;;20.1
79148;BMP280;68562;51.600;6.524;2023-05-17T08:10:00;1025.9;;;20.5
79148;BMP280;68562;51.600;6.524;2023-05-17T08:15:00;1026.0;;;20.6
79148;BMP280;68562;51.600;6.524;2023-05-17T08:20:00;1026.0;;;20.9
79148;BMP280;68562;51.600;6.524;2023-05-17T08:25:00;1026.0;;;21.0
79148;BMP280;68562;51.600;6.524;2023-05-17T08:30:00;1026.0;;;21.2
79148;BMP280;68562;51.600;6.524;2023-05-17T08:35:00;1026.0;;;21.3
79148;BMP280;68562;51.600;6.524;2023-05-17T08:40:00;1026.1;;;21.5
79148;BMP280;68562;51.600;6.524;2023-05-17T08:45:00;1026.1;;;22.0
79148;BMP280;68562;51.600;6.524;2023-05-17T08:50:00;1026.1;;;22.6
79148;BMP280;68562;51.600;6.524;2023-05-17T08:55:00;1026.1;;;23.3
79148;BMP280;68562;51.600;6.524;2023-05-17T09:00:01;1026.1;;;23.4
79148;BMP280;68562;51.600;6.524;2023-05-17T09:05:00;1026.2;;;23.2
79148;BMP280;68562;51.600;6.524;2023-05-17T09:10:00;1026.2;;;23.9
79148;BMP280;68562;51.600;6.524;2023-05-17T09:15:11;1026.2;;;25.0
79148;BMP280;68562;51.600;6.524;2023-05-17T09:20:00;1026.1;;;25.7
79148;BMP280;68562;51.600;6.524;2023-05-17T09:25:00;1026.1;;;26.6
79148;BMP280;68562;51.600;6.524;2023-05-17T09:30:00;1026.1;;;27.4
79148;BMP280;68562;51.600;6.524;2023-05-17T09:35:01;1026.2;;;27.6
79148;BMP280;68562;51.600;6.524;2023-05-17T09:40:00;1026.2;;;26.9
79148;BMP280;68562;51.600;6.524;2023-05-17T09:45:00;1026.2;;;25.9
79148;BMP280;68562;51.600;6.524;2023-05-17T09:50:00;1026.2;;;25.1
79148;BMP280;68562;51.600;6.524;2023-05-17T09:55:00;1026.2;;;24.8
79148;BMP280;68562;51.600;6.524;2023-05-17T10:00:00;1026.3;;;24.7
79148;BMP280;68562;51.600;6.524;2023-05-17T10:05:02;1026.1;;;25.2
79148;BMP280;68562;51.600;6.524;2023-05-17T10:10:01;1026.2;;;25.6
79148;BMP280;68562;51.600;6.524;2023-05-17T10:15:00;1026.2;;;26.0
79148;BMP280;68562;51.600;6.524;2023-05-17T10:20:02;1026.2;;;27.0
79148;BMP280;68562;51.600;6.524;2023-05-17T10:25:00;1026.2;;;28.0
79148;BMP280;68562;51.600;6.524;2023-05-17T10:30:00;1026.2;;;29.0
79148;BMP280;68562;51.600;6.524;2023-05-17T10:35:03;1026.2;;;29.9
79148;BMP280;68562;51.600;6.524;2023-05-17T10:40:00;1026.1;;;30.5
79148;BMP280;68562;51.600;6.524;2023-05-17T10:45:00;1026.2;;;30.2
79148;BMP280;68562;51.600;6.524;2023-05-17T10:50:01;1026.1;;;29.4
79148;BMP280;68562;51.600;6.524;2023-05-17T10:55:00;1026.0;;;29.2
79148;BMP280;68562;51.600;6.524;2023-05-17T11:00:01;1025.9;;;29.8
79148;BMP280;68562;51.600;6.524;2023-05-17T11:05:00;1025.9;;;30.7
79148;BMP280;68562;51.600;6.524;2023-05-17T11:10:03;1025.8;;;31.1
79148;BMP280;68562;51.600;6.524;2023-05-17T11:15:03;1025.9;;;31.2
79148;BMP280;68562;51.600;6.524;2023-05-17T11:20:01;1025.8;;;31.4
79148;BMP280;68562;51.600;6.524;2023-05-17T11:25:01;1025.8;;;31.7
79148;BMP280;68562;51.600;6.524;2023-05-17T11:30:06;1025.8;;;31.9
79148;BMP280;68562;51.600;6.524;2023-05-17T11:35:00;1025.8;;;32.5
79148;BMP280;68562;51.600;6.524;2023-05-17T11:40:01;1025.9;;;32.5
79148;BMP280;68562;51.600;6.524;2023-05-17T11:45:01;1025.8;;;32.5
79148;BMP280;68562;51.600;6.524;2023-05-17T11:50:02;1025.9;;;32.4
79148;BMP280;68562;51.600;6.524;2023-05-17T11:55:00;1025.7;;;32.2
79148;BMP280;68562;51.600;6.524;2023-05-17T12:00:01;1025.7;;;32.3
79148;BMP280;68562;51.600;6.524;2023-05-17T12:05:00;1025.7;;;32.8
79148;BMP280;68562;51.600;6.524;2023-05-17T12:10:01;1025.7;;;33.0
79148;BMP280;68562;51.600;6.524;2023-05-17T12:15:00;1025.8;;;33.2
79148;BMP280;68562;51.600;6.524;2023-05-17T12:20:05;1025.8;;;33.5
79148;BMP280;68562;51.600;6.524;2023-05-17T12:25:00;1025.8;;;34.0
79148;BMP280;68562;51.600;6.524;2023-05-17T12:30:13;1025.7;;;34.4
79148;BMP280;68562;51.600;6.524;2023-05-17T12:35:00;1025.8;;;34.6
79148;BMP280;68562;51.600;6.524;2023-05-17T12:40:00;1025.7;;;34.5
79148;BMP280;68562;51.600;6.524;2023-05-17T12:45:00;1025.8;;;34.3
79148;BMP280;68562;51.600;6.524;2023-05-17T12:50:00;1025.6;;;34.6
79148;BMP280;68562;51.600;6.524;2023-05-17T12:55:01;1025.7;;;34.8
79148;BMP280;68562;51.600;6.524;2023-05-17T13:00:05;1025.7;;;34.7
79148;BMP280;68562;51.600;6.524;2023-05-17T13:05:14;1025.6;;;34.7
79148;BMP280;68562;51.600;6.524;2023-05-17T13:10:00;1025.6;;;34.9
79148;BMP280;68562;51.600;6.524;2023-05-17T13:15:05;1025.5;;;35.1
79148;BMP280;68562;51.600;6.524;2023-05-17T13:20:00;1025.6;;;35.2
79148;BMP280;68562;51.600;6.524;2023-05-17T13:25:02;1025.5;;;35.3
79148;BMP280;68562;51.600;6.524;2023-05-17T13:30:01;1025.6;;;35.0
79148;BMP280;68562;51.600;6.524;2023-05-17T13:35:00;1025.5;;;34.3
79148;BMP280;68562;51.600;6.524;2023-05-17T13:40:00;1025.5;;;34.3
79148;BMP280;68562;51.600;6.524;2023-05-17T13:45:00;1025.5;;;34.9
79148;BMP280;68562;51.600;6.524;2023-05-17T13:50:00;1025.4;;;35.4
79148;BMP280;68562;51.600;6.524;2023-05-17T13:55:00;1025.5;;;35.8
79148;BMP280;68562;51.600;6.524;2023-05-17T14:00:00;1025.4;;;35.8
79148;BMP280;68562;51.600;6.524;2023-05-17T14:05:00;1025.5;;;34.7
79148;BMP280;68562;51.600;6.524;2023-05-17T14:10:00;1025.5;;;33.7
79148;BMP280;68562;51.600;6.524;2023-05-17T14:15:00;1025.4;;;33.7
79148;BMP280;68562;51.600;6.524;2023-05-17T14:20:00;1025.5;;;33.5
79148;BMP280;68562;51.600;6.524;2023-05-17T14:25:00;1025.5;;;32.4
79148;BMP280;68562;51.600;6.524;2023-05-17T14:30:00;1025.4;;;31.5
79148;BMP280;68562;51.600;6.524;2023-05-17T14:35:00;1025.4;;;30.9
79148;BMP280;68562;51.600;6.524;2023-05-17T14:40:00;1025.5;;;31.0
79148;BMP280;68562;51.600;6.524;2023-05-17T14:45:00;1025.5;;;31.3
79148;BMP280;68562;51.600;6.524;2023-05-17T14:50:00;1025.5;;;31.8
79148;BMP280;68562;51.600;6.524;2023-05-17T14:55:00;1025.5;;;32.3
79148;BMP280;68562;51.600;6.524;2023-05-17T15:00:00;1025.4;;;32.5
79148;BMP280;68562;51.600;6.524;2023-05-17T15:05:00;1025.3;;;32.5
79148;BMP280;68562;51.600;6.524;2023-05-17T15:10:02;1025.3;;;32.4
79148;BMP280;68562;51.600;6.524;2023-05-17T15:15:00;1025.4;;;32.1
79148;BMP280;68562;51.600;6.524;2023-05-17T15:20:00;1025.3;;;31.9
79148;BMP280;68562;51.600;6.524;2023-05-17T15:25:00;1025.3;;;31.7
79148;BMP280;68562;51.600;6.524;2023-05-17T15:30:00;1025.3;;;31.3
79148;BMP280;68562;51.600;6.524;2023-05-17T15:35:00;1025.3;;;30.7
79148;BMP280;68562;51.600;6.524;2023-05-17T15:40:06;1025.2;;;30.2
79148;BMP280;68562;51.600;6.524;2023-05-17T15:45:00;1025.3;;;30.0
79148;BMP280;68562;51.600;6.524;2023-05-17T15:50:00;1025.3;;;29.9
79148;BMP280;68562;51.600;6.524;2023-05-17T15:55:00;1025.2;;;29.6
79148;BMP280;68562;51.600;6.524;2023-05-17T16:00:00;1025.3;;;29.3
79148;BMP280;68562;51.600;6.524;2023-05-17T16:05:00;1025.3;;;28.7
79148;BMP280;68562;51.600;6.524;2023-05-17T16:10:00;1025.4;;;28.4
79148;BMP280;68562;51.600;6.524;2023-05-17T16:15:00;1025.4;;;28.2
79148;BMP280;68562;51.600;6.524;2023-05-17T16:20:00;1025.3;;;27.8
79148;BMP280;68562;51.600;6.524;2023-05-17T16:25:00;1025.3;;;27.8
79148;BMP280;68562;51.600;6.524;2023-05-17T16:30:00;1025.4;;;27.3
79148;BMP280;68562;51.600;6.524;2023-05-17T16:35:00;1025.4;;;26.5
79148;BMP280;68562;51.600;6.524;2023-05-17T16:40:00;1025.4;;;25.9
79148;BMP280;68562;51.600;6.524;2023-05-17T16:45:00;1025.4;;;25.4
79148;BMP280;68562;51.600;6.524;2023-05-17T16:50:00;1025.5;;;25.0
79148;BMP280;68562;51.600;6.524;2023-05-17T16:55:00;1025.5;;;24.6
79148;BMP280;68562;51.600;6.524;2023-05-17T17:00:00;1025.5;;;24.1
79148;BMP280;68562;51.600;6.524;2023-05-17T17:05:00;1025.5;;;23.6
79148;BMP280;68562;51.600;6.524;2023-05-17T17:10:00;1025.5;;;23.3
79148;BMP280;68562;51.600;6.524;2023-05-17T17:15:00;1025.5;;;23.1
79148;BMP280;68562;51.600;6.524;2023-05-17T17:20:00;1025.6;;;23.0
79148;BMP280;68562;51.600;6.524;2023-05-17T17:25:00;1025.6;;;22.9
79148;BMP280;68562;51.600;6.524;2023-05-17T17:30:00;1025.7;;;22.7
79148;BMP280;68562;51.600;6.524;2023-05-17T17:35:00;1025.7;;;22.4
79148;BMP280;68562;51.600;6.524;2023-05-17T17:40:00;1025.7;;;22.1
79148;BMP280;68562;51.600;6.524;2023-05-17T17:45:00;1025.6;;;21.9
79148;BMP280;68562;51.600;6.524;2023-05-17T17:50:00;1025.7;;;21.8
79148;BMP280;68562;51.600;6.524;2023-05-17T17:55:00;1025.7;;;21.6
79148;BMP280;68562;51.600;6.524;2023-05-17T18:00:00;1025.7;;;21.3
79148;BMP280;68562;51.600;6.524;2023-05-17T18:05:00;1025.8;;;21.0
79148;BMP280;68562;51.600;6.524;2023-05-17T18:10:00;1025.8;;;20.7
79148;BMP280;68562;51.600;6.524;2023-05-17T18:15:00;1025.8;;;20.4
79148;BMP280;68562;51.600;6.524;2023-05-17T18:20:00;1025.8;;;20.2
79148;BMP280;68562;51.600;6.524;2023-05-17T18:25:00;1025.8;;;20.0
79148;BMP280;68562;51.600;6.524;2023-05-17T18:30:00;1025.8;;;19.9
79148;BMP280;68562;51.600;6.524;2023-05-17T18:35:01;1025.7;;;19.9
79148;BMP280;68562;51.600;6.524;2023-05-17T18:40:00;1025.7;;;19.8
79148;BMP280;68562;51.600;6.524;2023-05-17T18:45:00;1025.8;;;19.7
79148;BMP280;68562;51.600;6.524;2023-05-17T18:50:00;1025.7;;;19.5
79148;BMP280;68562;51.600;6.524;2023-05-17T18:55:00;1025.8;;;19.4
79148;BMP280;68562;51.600;6.524;2023-05-17T19:00:00;1025.8;;;19.2
79148;BMP280;68562;51.600;6.524;2023-05-17T19:05:00;1025.8;;;19.0
79148;BMP280;68562;51.600;6.524;2023-05-17T19:10:00;1025.8;;;18.8
79148;BMP280;68562;51.600;6.524;2023-05-17T19:15:00;1025.9;;;18.7
79148;BMP280;68562;51.600;6.524;2023-05-17T19:20:01;1026.0;;;18.5
79148;BMP280;68562;51.600;6.524;2023-05-17T19:25:00;1026.0;;;18.4
79148;BMP280;68562;51.600;6.524;2023-05-17T19:30:00;1026.1;;;18.1
79148;BMP280;68562;51.600;6.524;2023-05-17T19:35:00;1026.1;;;17.9
79148;BMP280;68562;51.600;6.524;2023-05-17T19:40:00;1026.1;;;17.5
79148;BMP280;68562;51.600;6.524;2023-05-17T19:45:00;1026.2;;;17.3
79148;BMP280;68562;51.600;6.524;2023-05-17T19:50:00;1026.2;;;17.0
79148;BMP280;68562;51.600;6.524;2023-05-17T19:55:00;1026.2;;;16.8
79148;BMP280;68562;51.600;6.524;2023-05-17T20:00:00;1026.3;;;16.6
79148;BMP280;68562;51.600;6.524;2023-05-17T20:05:00;1026.3;;;16.4
79148;BMP280;68562;51.600;6.524;2023-05-17T20:10:00;1026.3;;;16.3
79148;BMP280;68562;51.600;6.524;2023-05-17T20:15:00;1026.3;;;16.1
79148;BMP280;68562;51.600;6.524;2023-05-17T20:20:00;1026.3;;;15.9
79148;BMP280;68562;51.600;6.524;2023-05-17T20:25:00;1026.3;;;15.8
79148;BMP280;68562;51.600;6.524;2023-05-17T20:30:00;1026.3;;;15.7
79148;BMP280;68562;51.600;6.524;2023-05-17T20:35:00;1026.3;;;15.5
79148;BMP280;68562;51.600;6.524;2023-05-17T20:40:00;1026.4;;;15.4
79148;BMP280;68562;51.600;6.524;2023-05-17T20:45:00;1026.4;;;15.3
79148;BMP280;68562;51.600;6.524;2023-05-17T20:50:00;1026.4;;;15.2
79148;BMP280;68562;51.600;6.524;2023-05-17T20:55:00;1026.4;;;15.1
79148;BMP280;68562;51.600;6.524;2023-05-17T21:00:00;1026.4;;;15.0
79148;BMP280;68562;51.600;6.524;2023-05-17T21:05:00;1026.4;;;14.8
79148;BMP280;68562;51.600;6.524;2023-05-17T21:10:00;1026.4;;;14.8
79148;BMP280;68562;51.600;6.524;2023-05-17T21:15:00;1026.4;;;14.7
79148;BMP280;68562;51.600;6.524;2023-05-17T21:20:00;1026.3;;;14.6
79148;BMP280;68562;51.600;6.524;2023-05-17T21:25:00;1026.4;;;14.5
79148;BMP280;68562;51.600;6.524;2023-05-17T21:30:00;1026.5;;;14.4
79148;BMP280;68562;51.600;6.524;2023-05-17T21:35:00;1026.4;;;14.3
79148;BMP280;68562;51.600;6.524;2023-05-17T21:40:00;1026.4;;;14.2
79148;BMP280;68562;51.600;6.524;2023-05-17T21:45:00;1026.4;;;14.1
79148;BMP280;68562;51.600;6.524;2023-05-17T21:50:00;1026.5;;;14.0
79148;BMP280;68562;51.600;6.524;2023-05-17T21:55:00;1026.5;;;13.9
79148;BMP280;68562;51.600;6.524;2023-05-17T22:00:00;1026.5;;;13.8
79148;BMP280;68562;51.600;6.524;2023-05-17T22:05:00;1026.5;;;13.7
79148;BMP280;68562;51.600;6.524;2023-05-17T22:10:00;1026.5;;;13.6
79148;BMP280;68562;51.600;6.524;2023-05-17T22:15:00;1026.5;;;13.5
79148;BMP280;68562;51.600;6.524;2023-05-17T22:20:00;1026.5;;;13.4
79148;BMP280;68562;51.600;6.524;2023-05-17T22:25:00;1026.5;;;13.4
79148;BMP280;68562;51.600;6.524;2023-05-17T22:30:00;1026.6;;;13.3
79148;BMP280;68562;51.600;6.524;2023-05-17T22:35:00;1026.6;;;13.2
79148;BMP280;68562;51.600;6.524;2023-05-17T22:40:00;1026.6;;;13.2
79148;BMP280;68562;51.600;6.524;2023-05-17T22:45:00;1026.6;;;13.1
79148;BMP280;68562;51.600;6.524;2023-05-17T22:50:00;1026.5;;;13.0
79148;BMP280;68562;51.600;6.524;2023-05-17T22:55:00;1026.6;;;12.9
79148;BMP280;68562;51.600;6.524;2023-05-17T23:00:00;1026.7;;;12.9
79148;BMP280;68562;51.600;6.524;2023-05-17T23:05:00;1026.7;;;12.8
79148;BMP280;68562;51.600;6.524;2023-05-17T23:10:00;1026.7;;;12.7
79148;BMP280;68562;51.600;6.524;2023-05-17T23:15:00;1026.7;;;12.6
79148;BMP280;68562;51.600;6.524;2023-05-17T23:20:01;1026.7;;;12.6
79148;BMP280;68562;51.600;6.524;2023-05-17T23:25:00;1026.8;;;12.5
79148;BMP280;68562;51.600;6.524;2023-05-17T23:30:01;1026.8;;;12.4
79148;BMP280;68562;51.600;6.524;2023-05-17T23:35:00;1026.8;;;12.4
79148;BMP280;68562;51.600;6.524;2023-05-17T23:40:03;1026.7;;;12.3
79148;BMP280;68562;51.600;6.524;2023-05-17T23:45:00;1026.7;;;12.2
79148;BMP280;68562;51.600;6.524;2023-05-17T23:50:00;1026.6;;;12.1
79148;BMP280;68562;51.600;6.524;2023-05-17T23:55:00;1026.7;;;12.1
